WZZ8PV EPWA-LIME
Flight info
| Callsign | WZZ8PV |
|---|---|
| Flight time | 1h 32m |
| Altitude | 36000 |
| Route | EVINA N744 NAVUR DCT BAVOK DCT DETSA/N0441F350 DCT BAKOR DCT NAXAV DCT RENTA DCT ATPED DCT LUSIL/N0356F190 T772 EKLIB |
| Aircraft | A21N/M-SDE2E3FGHIRWXY/LB1 |
Departure
| Time | 2026-04-30 05:09 |
|---|---|
| Airport | Warsaw Chopin Airport (EPWA) |
Arrival
| Time | 2026-04-30 06:42 |
|---|---|
| Airport | Il Caravaggio International Airport (LIME) |
| Time | Latitude | Longitude | Altitude | Speed | Heading |
|---|---|---|---|---|---|
| 2026-04-30 04:30 | 52.15214 | 20.98452 | 366 ft | 0 kts | 62° |
| 2026-04-30 04:58 | 52.15213 | 20.98447 | 366 ft | 2 kts | 62° |
| 2026-04-30 04:59 | 52.15205 | 20.98426 | 366 ft | 2 kts | 62° |
| 2026-04-30 04:59 | 52.15199 | 20.98404 | 366 ft | 2 kts | 62° |
| 2026-04-30 04:59 | 52.15191 | 20.98383 | 366 ft | 2 kts | 62° |
| 2026-04-30 04:59 | 52.15185 | 20.98365 | 366 ft | 0 kts | 62° |
| 2026-04-30 05:00 | 52.15178 | 20.98349 | 366 ft | 2 kts | 33° |
| 2026-04-30 05:00 | 52.15165 | 20.98341 | 366 ft | 2 kts | 359° |
| 2026-04-30 05:00 | 52.15154 | 20.98344 | 366 ft | 0 kts | 334° |
| 2026-04-30 05:00 | 52.15148 | 20.98350 | 366 ft | 0 kts | 331° |
| 2026-04-30 05:01 | 52.15148 | 20.98351 | 366 ft | 0 kts | 331° |
| 2026-04-30 05:04 | 52.15148 | 20.98350 | 366 ft | 0 kts | 331° |
| 2026-04-30 05:04 | 52.15158 | 20.98341 | 366 ft | 3 kts | 331° |
| 2026-04-30 05:04 | 52.15192 | 20.98312 | 366 ft | 6 kts | 332° |
| 2026-04-30 05:04 | 52.15234 | 20.98274 | 366 ft | 7 kts | 332° |
| 2026-04-30 05:05 | 52.15282 | 20.98232 | 366 ft | 8 kts | 332° |
| 2026-04-30 05:05 | 52.15338 | 20.98183 | 366 ft | 9 kts | 332° |
| 2026-04-30 05:05 | 52.15399 | 20.98129 | 366 ft | 10 kts | 331° |
| 2026-04-30 05:06 | 52.15537 | 20.98014 | 366 ft | 10 kts | 332° |
| 2026-04-30 05:06 | 52.15610 | 20.98008 | 366 ft | 11 kts | 22° |
| 2026-04-30 05:06 | 52.15684 | 20.98064 | 366 ft | 12 kts | 24° |
| 2026-04-30 05:06 | 52.15764 | 20.98122 | 366 ft | 13 kts | 24° |
| 2026-04-30 05:07 | 52.15850 | 20.98184 | 366 ft | 13 kts | 24° |
| 2026-04-30 05:07 | 52.15939 | 20.98252 | 366 ft | 14 kts | 25° |
| 2026-04-30 05:07 | 52.16029 | 20.98320 | 367 ft | 12 kts | 25° |
| 2026-04-30 05:07 | 52.16096 | 20.98363 | 367 ft | 8 kts | 360° |
| 2026-04-30 05:08 | 52.16123 | 20.98322 | 366 ft | 5 kts | 295° |
| 2026-04-30 05:08 | 52.16127 | 20.98303 | 367 ft | 0 kts | 289° |
| 2026-04-30 05:08 | 52.16128 | 20.98300 | 367 ft | 3 kts | 289° |
| 2026-04-30 05:09 | 52.16206 | 20.98016 | 367 ft | 64 kts | 294° |
| 2026-04-30 05:09 | 52.16497 | 20.96985 | 367 ft | 132 kts | 294° |
| 2026-04-30 05:09 | 52.16939 | 20.95416 | 584 ft | 166 kts | 294° |
| 2026-04-30 05:09 | 52.17394 | 20.93692 | 1367 ft | 165 kts | 295° |
| 2026-04-30 05:10 | 52.17843 | 20.92044 | 2171 ft | 160 kts | 297° |
| 2026-04-30 05:10 | 52.18241 | 20.90308 | 2589 ft | 174 kts | 281° |
| 2026-04-30 05:10 | 52.18143 | 20.88233 | 2940 ft | 194 kts | 261° |
| 2026-04-30 05:10 | 52.17832 | 20.86019 | 3307 ft | 211 kts | 259° |
| 2026-04-30 05:11 | 52.17473 | 20.83582 | 3614 ft | 233 kts | 259° |
| 2026-04-30 05:11 | 52.17083 | 20.80908 | 4046 ft | 251 kts | 259° |
| 2026-04-30 05:11 | 52.16682 | 20.78117 | 4686 ft | 260 kts | 259° |
| 2026-04-30 05:11 | 52.16038 | 20.75347 | 5453 ft | 269 kts | 237° |
| 2026-04-30 05:12 | 52.14573 | 20.73456 | 6205 ft | 279 kts | 204° |
| 2026-04-30 05:12 | 52.12719 | 20.72539 | 7011 ft | 283 kts | 194° |
| 2026-04-30 05:12 | 52.10794 | 20.71817 | 7775 ft | 288 kts | 194° |
| 2026-04-30 05:12 | 52.08847 | 20.71047 | 8481 ft | 294 kts | 195° |
| 2026-04-30 05:13 | 52.06860 | 20.70181 | 9195 ft | 300 kts | 196° |
| 2026-04-30 05:13 | 52.04853 | 20.69243 | 9889 ft | 306 kts | 197° |
| 2026-04-30 05:13 | 52.02801 | 20.68240 | 10596 ft | 310 kts | 197° |
| 2026-04-30 05:13 | 52.00725 | 20.67205 | 11094 ft | 323 kts | 197° |
| 2026-04-30 05:14 | 51.98512 | 20.66089 | 11445 ft | 340 kts | 197° |
| 2026-04-30 05:14 | 51.96256 | 20.64945 | 11962 ft | 349 kts | 197° |
| 2026-04-30 05:14 | 51.93919 | 20.63756 | 12647 ft | 353 kts | 197° |
| 2026-04-30 05:14 | 51.91582 | 20.62568 | 13312 ft | 357 kts | 197° |
| 2026-04-30 05:15 | 51.89200 | 20.61358 | 13953 ft | 361 kts | 197° |
| 2026-04-30 05:15 | 51.86805 | 20.60144 | 14566 ft | 365 kts | 197° |
| 2026-04-30 05:15 | 51.84361 | 20.58903 | 15159 ft | 370 kts | 197° |
| 2026-04-30 05:15 | 51.81913 | 20.57663 | 15730 ft | 374 kts | 197° |
| 2026-04-30 05:16 | 51.79408 | 20.56396 | 16302 ft | 379 kts | 197° |
| 2026-04-30 05:16 | 51.76889 | 20.55122 | 16844 ft | 383 kts | 197° |
| 2026-04-30 05:16 | 51.74362 | 20.53847 | 17353 ft | 388 kts | 197° |
| 2026-04-30 05:16 | 51.71768 | 20.52541 | 17862 ft | 392 kts | 197° |
| 2026-04-30 05:17 | 51.69167 | 20.51230 | 18385 ft | 396 kts | 196° |
| 2026-04-30 05:17 | 51.66530 | 20.49902 | 18875 ft | 401 kts | 196° |
| 2026-04-30 05:17 | 51.63848 | 20.48555 | 19378 ft | 404 kts | 196° |
| 2026-04-30 05:17 | 51.61181 | 20.47218 | 19865 ft | 408 kts | 196° |
| 2026-04-30 05:18 | 51.58482 | 20.45864 | 20373 ft | 411 kts | 196° |
| 2026-04-30 05:18 | 51.55745 | 20.44493 | 20851 ft | 414 kts | 196° |
| 2026-04-30 05:18 | 51.53003 | 20.43122 | 21344 ft | 417 kts | 196° |
| 2026-04-30 05:18 | 51.50220 | 20.41731 | 21815 ft | 420 kts | 196° |
| 2026-04-30 05:19 | 51.47424 | 20.40336 | 22255 ft | 423 kts | 196° |
| 2026-04-30 05:19 | 51.44633 | 20.38947 | 22711 ft | 426 kts | 196° |
| 2026-04-30 05:19 | 51.41813 | 20.37541 | 23142 ft | 429 kts | 197° |
| 2026-04-30 05:19 | 51.39024 | 20.35754 | 23556 ft | 433 kts | 206° |
| 2026-04-30 05:20 | 51.36409 | 20.33320 | 23970 ft | 436 kts | 214° |
| 2026-04-30 05:20 | 51.33993 | 20.30492 | 24381 ft | 438 kts | 218° |
| 2026-04-30 05:20 | 51.31565 | 20.27499 | 24784 ft | 441 kts | 218° |
| 2026-04-30 05:20 | 51.29138 | 20.24495 | 25183 ft | 444 kts | 218° |
| 2026-04-30 05:21 | 51.26701 | 20.21511 | 25553 ft | 447 kts | 218° |
| 2026-04-30 05:21 | 51.24234 | 20.18518 | 25950 ft | 449 kts | 218° |
| 2026-04-30 05:21 | 51.21722 | 20.15491 | 26344 ft | 451 kts | 217° |
| 2026-04-30 05:21 | 51.19230 | 20.12501 | 26727 ft | 453 kts | 218° |
| 2026-04-30 05:22 | 51.16715 | 20.09488 | 27063 ft | 457 kts | 218° |
| 2026-04-30 05:22 | 51.14171 | 20.06441 | 27441 ft | 458 kts | 217° |
| 2026-04-30 05:22 | 51.11630 | 20.03408 | 27801 ft | 461 kts | 218° |
| 2026-04-30 05:22 | 51.09067 | 20.00353 | 28153 ft | 463 kts | 217° |
| 2026-04-30 05:23 | 51.06478 | 19.97281 | 28479 ft | 466 kts | 217° |
| 2026-04-30 05:23 | 51.03903 | 19.94191 | 28797 ft | 468 kts | 219° |
| 2026-04-30 05:23 | 51.01397 | 19.90853 | 29133 ft | 469 kts | 223° |
| 2026-04-30 05:23 | 50.99052 | 19.87278 | 29484 ft | 470 kts | 228° |
| 2026-04-30 05:24 | 50.96859 | 19.83516 | 29775 ft | 472 kts | 230° |
| 2026-04-30 05:24 | 50.94656 | 19.79634 | 30063 ft | 475 kts | 230° |
| 2026-04-30 05:24 | 50.92432 | 19.75714 | 30354 ft | 478 kts | 230° |
| 2026-04-30 05:24 | 50.90213 | 19.71813 | 30638 ft | 481 kts | 230° |
| 2026-04-30 05:25 | 50.87978 | 19.67904 | 30920 ft | 483 kts | 230° |
| 2026-04-30 05:25 | 50.85696 | 19.63930 | 31171 ft | 486 kts | 230° |
| 2026-04-30 05:25 | 50.83425 | 19.59979 | 31387 ft | 489 kts | 230° |
| 2026-04-30 05:25 | 50.81147 | 19.56026 | 31622 ft | 491 kts | 230° |
| 2026-04-30 05:26 | 50.78856 | 19.52058 | 31874 ft | 493 kts | 230° |
| 2026-04-30 05:26 | 50.76543 | 19.48056 | 32126 ft | 494 kts | 230° |
| 2026-04-30 05:26 | 50.74238 | 19.44077 | 32357 ft | 496 kts | 230° |
| 2026-04-30 05:26 | 50.71921 | 19.40084 | 32555 ft | 499 kts | 230° |
| 2026-04-30 05:27 | 50.69552 | 19.36003 | 32776 ft | 500 kts | 230° |
| 2026-04-30 05:27 | 50.67231 | 19.32016 | 33069 ft | 499 kts | 229° |
| 2026-04-30 05:27 | 50.64880 | 19.27986 | 33316 ft | 498 kts | 229° |
| 2026-04-30 05:27 | 50.62557 | 19.24009 | 33577 ft | 497 kts | 229° |
| 2026-04-30 05:28 | 50.60206 | 19.19993 | 33871 ft | 496 kts | 229° |
| 2026-04-30 05:28 | 50.57901 | 19.16059 | 34090 ft | 496 kts | 229° |
| 2026-04-30 05:28 | 50.55552 | 19.12051 | 34267 ft | 496 kts | 229° |
| 2026-04-30 05:28 | 50.53234 | 19.08104 | 34561 ft | 494 kts | 229° |
| 2026-04-30 05:29 | 50.50919 | 19.04171 | 34865 ft | 493 kts | 229° |
| 2026-04-30 05:29 | 50.48593 | 19.00223 | 35078 ft | 494 kts | 229° |
| 2026-04-30 05:29 | 50.46260 | 18.96269 | 35332 ft | 493 kts | 229° |
| 2026-04-30 05:29 | 50.43930 | 18.92330 | 35562 ft | 493 kts | 229° |
| 2026-04-30 05:30 | 50.41610 | 18.88411 | 35786 ft | 493 kts | 230° |
| 2026-04-30 05:30 | 50.39307 | 18.84528 | 36013 ft | 493 kts | 229° |
| 2026-04-30 05:30 | 50.36967 | 18.80586 | 36214 ft | 493 kts | 229° |
| 2026-04-30 05:30 | 50.34628 | 18.76655 | 36373 ft | 493 kts | 229° |
| 2026-04-30 05:31 | 50.29982 | 18.68859 | 36432 ft | 493 kts | 229° |
| 2026-04-30 05:31 | 50.25321 | 18.61069 | 36432 ft | 493 kts | 229° |
| 2026-04-30 05:32 | 50.20649 | 18.53277 | 36435 ft | 492 kts | 230° |
| 2026-04-30 05:32 | 50.15962 | 18.45488 | 36430 ft | 492 kts | 230° |
| 2026-04-30 05:33 | 50.11280 | 18.37721 | 36438 ft | 494 kts | 229° |
| 2026-04-30 05:33 | 50.06588 | 18.29964 | 36432 ft | 493 kts | 229° |
| 2026-04-30 05:34 | 50.01918 | 18.22267 | 36448 ft | 492 kts | 229° |
| 2026-04-30 05:34 | 49.97590 | 18.14125 | 36445 ft | 490 kts | 235° |
| 2026-04-30 05:35 | 49.93499 | 18.05683 | 36436 ft | 490 kts | 236° |
| 2026-04-30 05:35 | 49.89400 | 17.97234 | 36436 ft | 490 kts | 236° |
| 2026-04-30 05:36 | 49.85296 | 17.88816 | 36429 ft | 491 kts | 236° |
| 2026-04-30 05:36 | 49.81206 | 17.80461 | 36424 ft | 490 kts | 236° |
| 2026-04-30 05:37 | 49.77082 | 17.72067 | 36403 ft | 490 kts | 236° |
| 2026-04-30 05:37 | 49.72967 | 17.63721 | 36393 ft | 490 kts | 236° |
| 2026-04-30 05:38 | 49.68848 | 17.55383 | 36390 ft | 491 kts | 236° |
| 2026-04-30 05:38 | 49.64718 | 17.47057 | 36394 ft | 491 kts | 236° |
| 2026-04-30 05:39 | 49.60575 | 17.38730 | 36403 ft | 491 kts | 236° |
| 2026-04-30 05:39 | 49.56412 | 17.30388 | 36408 ft | 490 kts | 235° |
| 2026-04-30 05:40 | 49.52278 | 17.22138 | 36421 ft | 490 kts | 235° |
| 2026-04-30 05:40 | 49.48121 | 17.13859 | 36417 ft | 490 kts | 235° |
| 2026-04-30 05:41 | 49.43979 | 17.05642 | 36415 ft | 488 kts | 235° |
| 2026-04-30 05:41 | 49.39816 | 16.97403 | 36401 ft | 489 kts | 235° |
| 2026-04-30 05:42 | 49.35658 | 16.89193 | 36414 ft | 489 kts | 235° |
| 2026-04-30 05:42 | 49.31510 | 16.81039 | 36405 ft | 488 kts | 235° |
| 2026-04-30 05:43 | 49.27337 | 16.72861 | 36407 ft | 489 kts | 235° |
| 2026-04-30 05:43 | 49.23152 | 16.64676 | 36421 ft | 487 kts | 235° |
| 2026-04-30 05:44 | 49.18997 | 16.56578 | 36429 ft | 487 kts | 235° |
| 2026-04-30 05:44 | 49.14836 | 16.48497 | 36420 ft | 486 kts | 235° |
| 2026-04-30 05:45 | 49.10665 | 16.40418 | 36432 ft | 486 kts | 235° |
| 2026-04-30 05:45 | 49.06500 | 16.32380 | 36433 ft | 485 kts | 234° |
| 2026-04-30 05:46 | 49.02309 | 16.24305 | 36420 ft | 485 kts | 234° |
| 2026-04-30 05:46 | 48.98120 | 16.16264 | 36441 ft | 486 kts | 234° |
| 2026-04-30 05:47 | 48.93918 | 16.08223 | 36416 ft | 486 kts | 234° |
| 2026-04-30 05:47 | 48.89738 | 16.00250 | 36425 ft | 486 kts | 234° |
| 2026-04-30 05:48 | 48.85527 | 15.92244 | 36425 ft | 486 kts | 234° |
| 2026-04-30 05:48 | 48.81448 | 15.84507 | 36423 ft | 485 kts | 234° |
| 2026-04-30 05:49 | 48.77235 | 15.76536 | 36393 ft | 487 kts | 234° |
| 2026-04-30 05:49 | 48.73012 | 15.68576 | 36399 ft | 486 kts | 234° |
| 2026-04-30 05:50 | 48.68796 | 15.60652 | 36380 ft | 487 kts | 234° |
| 2026-04-30 05:50 | 48.64567 | 15.52722 | 36386 ft | 486 kts | 234° |
| 2026-04-30 05:51 | 48.60312 | 15.44777 | 36383 ft | 487 kts | 234° |
| 2026-04-30 05:51 | 48.56078 | 15.36884 | 36379 ft | 486 kts | 234° |
| 2026-04-30 05:52 | 48.51813 | 15.28960 | 36369 ft | 487 kts | 233° |
| 2026-04-30 05:52 | 48.47544 | 15.21058 | 36350 ft | 487 kts | 233° |
| 2026-04-30 05:53 | 48.43283 | 15.13187 | 36351 ft | 487 kts | 233° |
| 2026-04-30 05:53 | 48.39014 | 15.05327 | 36369 ft | 487 kts | 233° |
| 2026-04-30 05:54 | 48.34739 | 14.97478 | 36359 ft | 486 kts | 233° |
| 2026-04-30 05:54 | 48.30479 | 14.89684 | 36367 ft | 486 kts | 234° |
| 2026-04-30 05:55 | 48.26187 | 14.81846 | 36369 ft | 485 kts | 233° |
| 2026-04-30 05:55 | 48.21920 | 14.74080 | 36385 ft | 485 kts | 233° |
| 2026-04-30 05:56 | 48.17637 | 14.66308 | 36397 ft | 485 kts | 233° |
| 2026-04-30 05:56 | 48.13343 | 14.58538 | 36377 ft | 485 kts | 233° |
| 2026-04-30 05:57 | 48.09062 | 14.50814 | 36380 ft | 484 kts | 233° |
| 2026-04-30 05:57 | 48.04799 | 14.43143 | 36377 ft | 484 kts | 233° |
| 2026-04-30 05:58 | 48.00488 | 14.35409 | 36374 ft | 485 kts | 233° |
| 2026-04-30 05:58 | 47.96164 | 14.27671 | 36373 ft | 485 kts | 232° |
| 2026-04-30 05:59 | 47.91859 | 14.19994 | 36371 ft | 484 kts | 232° |
| 2026-04-30 05:59 | 47.87554 | 14.12338 | 36356 ft | 484 kts | 233° |
| 2026-04-30 06:00 | 47.83252 | 14.04710 | 36342 ft | 484 kts | 232° |
| 2026-04-30 06:00 | 47.78909 | 13.97027 | 36327 ft | 485 kts | 232° |
| 2026-04-30 06:01 | 47.74596 | 13.89422 | 36317 ft | 484 kts | 233° |
| 2026-04-30 06:01 | 47.70353 | 13.81960 | 36309 ft | 484 kts | 233° |
| 2026-04-30 06:02 | 47.66012 | 13.74342 | 36295 ft | 482 kts | 232° |
| 2026-04-30 06:02 | 47.61681 | 13.66770 | 36292 ft | 481 kts | 232° |
| 2026-04-30 06:03 | 47.57386 | 13.59286 | 36288 ft | 481 kts | 232° |
| 2026-04-30 06:03 | 47.53061 | 13.51765 | 36282 ft | 480 kts | 232° |
| 2026-04-30 06:04 | 47.50925 | 13.48057 | 36107 ft | 480 kts | 232° |
| 2026-04-30 06:04 | 47.48759 | 13.44305 | 36205 ft | 480 kts | 232° |
| 2026-04-30 06:05 | 47.42244 | 13.33042 | 36250 ft | 479 kts | 231° |
| 2026-04-30 06:05 | 47.37934 | 13.25621 | 36245 ft | 478 kts | 231° |
| 2026-04-30 06:06 | 47.33603 | 13.18180 | 36242 ft | 478 kts | 231° |
| 2026-04-30 06:06 | 47.29277 | 13.10770 | 36245 ft | 478 kts | 231° |
| 2026-04-30 06:07 | 47.24936 | 13.03355 | 36273 ft | 478 kts | 231° |
| 2026-04-30 06:07 | 47.20604 | 12.95974 | 36254 ft | 478 kts | 231° |
| 2026-04-30 06:08 | 47.16262 | 12.88596 | 36237 ft | 478 kts | 231° |
| 2026-04-30 06:08 | 47.11948 | 12.81289 | 36193 ft | 476 kts | 231° |
| 2026-04-30 06:09 | 47.07608 | 12.73956 | 36184 ft | 476 kts | 231° |
| 2026-04-30 06:09 | 47.03307 | 12.66706 | 36172 ft | 475 kts | 231° |
| 2026-04-30 06:10 | 46.98962 | 12.59401 | 36186 ft | 474 kts | 231° |
| 2026-04-30 06:10 | 46.94620 | 12.52120 | 35862 ft | 476 kts | 231° |
| 2026-04-30 06:10 | 46.92460 | 12.48507 | 35662 ft | 476 kts | 231° |
| 2026-04-30 06:11 | 46.90279 | 12.44857 | 35464 ft | 477 kts | 231° |
| 2026-04-30 06:11 | 46.88118 | 12.41250 | 35304 ft | 476 kts | 231° |
| 2026-04-30 06:11 | 46.85923 | 12.37594 | 35247 ft | 477 kts | 232° |
| 2026-04-30 06:12 | 46.81707 | 12.30125 | 35234 ft | 475 kts | 236° |
| 2026-04-30 06:12 | 46.78112 | 12.22034 | 35221 ft | 472 kts | 244° |
| 2026-04-30 06:13 | 46.75122 | 12.13600 | 35220 ft | 470 kts | 246° |
| 2026-04-30 06:13 | 46.72191 | 12.05128 | 35233 ft | 470 kts | 246° |
| 2026-04-30 06:14 | 46.69245 | 11.96679 | 35250 ft | 470 kts | 246° |
| 2026-04-30 06:14 | 46.66285 | 11.88240 | 35250 ft | 469 kts | 246° |
| 2026-04-30 06:15 | 46.63322 | 11.79822 | 35243 ft | 469 kts | 246° |
| 2026-04-30 06:15 | 46.60363 | 11.71446 | 35238 ft | 468 kts | 246° |
| 2026-04-30 06:16 | 46.57373 | 11.63030 | 35231 ft | 467 kts | 246° |
| 2026-04-30 06:16 | 46.54416 | 11.54724 | 35235 ft | 467 kts | 246° |
| 2026-04-30 06:17 | 46.51445 | 11.46402 | 35240 ft | 466 kts | 246° |
| 2026-04-30 06:17 | 46.48457 | 11.38051 | 34901 ft | 466 kts | 246° |
| 2026-04-30 06:17 | 46.46968 | 11.33905 | 34440 ft | 465 kts | 246° |
| 2026-04-30 06:18 | 46.45491 | 11.29748 | 33858 ft | 465 kts | 246° |
| 2026-04-30 06:18 | 46.44051 | 11.25564 | 33214 ft | 466 kts | 247° |
| 2026-04-30 06:18 | 46.42621 | 11.21374 | 32502 ft | 470 kts | 247° |
| 2026-04-30 06:18 | 46.41171 | 11.17138 | 31909 ft | 468 kts | 247° |
| 2026-04-30 06:19 | 46.39734 | 11.12949 | 31434 ft | 470 kts | 247° |
| 2026-04-30 06:19 | 46.38272 | 11.08699 | 30914 ft | 470 kts | 247° |
| 2026-04-30 06:19 | 46.36838 | 11.04547 | 30386 ft | 467 kts | 247° |
| 2026-04-30 06:19 | 46.35390 | 11.00363 | 29840 ft | 464 kts | 247° |
| 2026-04-30 06:20 | 46.33963 | 10.96240 | 29327 ft | 460 kts | 247° |
| 2026-04-30 06:20 | 46.32528 | 10.92107 | 28814 ft | 457 kts | 247° |
| 2026-04-30 06:20 | 46.31118 | 10.88050 | 28314 ft | 454 kts | 247° |
| 2026-04-30 06:20 | 46.29701 | 10.83978 | 27804 ft | 450 kts | 247° |
| 2026-04-30 06:21 | 46.28316 | 10.79997 | 27303 ft | 447 kts | 247° |
| 2026-04-30 06:21 | 46.26930 | 10.76013 | 26806 ft | 442 kts | 247° |
| 2026-04-30 06:21 | 46.25552 | 10.72059 | 26316 ft | 439 kts | 247° |
| 2026-04-30 06:21 | 46.24193 | 10.68155 | 25826 ft | 436 kts | 247° |
| 2026-04-30 06:22 | 46.22841 | 10.64278 | 25334 ft | 433 kts | 246° |
| 2026-04-30 06:22 | 46.21493 | 10.60417 | 24774 ft | 431 kts | 247° |
| 2026-04-30 06:22 | 46.20147 | 10.56568 | 24230 ft | 427 kts | 246° |
| 2026-04-30 06:22 | 46.18829 | 10.52804 | 23712 ft | 423 kts | 246° |
| 2026-04-30 06:23 | 46.17520 | 10.49077 | 23149 ft | 418 kts | 246° |
| 2026-04-30 06:23 | 46.16203 | 10.45335 | 22414 ft | 414 kts | 246° |
| 2026-04-30 06:23 | 46.14926 | 10.41708 | 21816 ft | 408 kts | 246° |
| 2026-04-30 06:23 | 46.13657 | 10.38115 | 21299 ft | 399 kts | 246° |
| 2026-04-30 06:24 | 46.12405 | 10.34571 | 20734 ft | 393 kts | 245° |
| 2026-04-30 06:24 | 46.11167 | 10.31067 | 20248 ft | 391 kts | 245° |
| 2026-04-30 06:24 | 46.09952 | 10.27631 | 19792 ft | 389 kts | 245° |
| 2026-04-30 06:24 | 46.08735 | 10.24196 | 19318 ft | 386 kts | 245° |
| 2026-04-30 06:25 | 46.07471 | 10.20796 | 18850 ft | 386 kts | 239° |
| 2026-04-30 06:25 | 46.05619 | 10.18034 | 18292 ft | 390 kts | 215° |
| 2026-04-30 06:25 | 46.03228 | 10.16193 | 17871 ft | 386 kts | 205° |
| 2026-04-30 06:25 | 46.00792 | 10.14630 | 17518 ft | 383 kts | 205° |
| 2026-04-30 06:26 | 45.98385 | 10.13056 | 17137 ft | 378 kts | 205° |
| 2026-04-30 06:26 | 45.96053 | 10.11455 | 16788 ft | 373 kts | 207° |
| 2026-04-30 06:26 | 45.93757 | 10.09819 | 16404 ft | 368 kts | 207° |
| 2026-04-30 06:26 | 45.91484 | 10.08159 | 16021 ft | 363 kts | 208° |
| 2026-04-30 06:27 | 45.89276 | 10.06525 | 15646 ft | 358 kts | 208° |
| 2026-04-30 06:27 | 45.87072 | 10.04884 | 15272 ft | 354 kts | 208° |
| 2026-04-30 06:27 | 45.84900 | 10.03261 | 14900 ft | 349 kts | 208° |
| 2026-04-30 06:27 | 45.82777 | 10.01674 | 14535 ft | 345 kts | 209° |
| 2026-04-30 06:28 | 45.80668 | 10.00096 | 14145 ft | 339 kts | 208° |
| 2026-04-30 06:28 | 45.78618 | 9.98564 | 13780 ft | 329 kts | 209° |
| 2026-04-30 06:28 | 45.76611 | 9.97067 | 13390 ft | 319 kts | 209° |
| 2026-04-30 06:28 | 45.74665 | 9.95612 | 13016 ft | 312 kts | 209° |
| 2026-04-30 06:29 | 45.72768 | 9.94197 | 12653 ft | 311 kts | 209° |
| 2026-04-30 06:29 | 45.70839 | 9.92758 | 12280 ft | 309 kts | 209° |
| 2026-04-30 06:29 | 45.68961 | 9.91358 | 11927 ft | 307 kts | 209° |
| 2026-04-30 06:29 | 45.67059 | 9.89942 | 11569 ft | 304 kts | 208° |
| 2026-04-30 06:30 | 45.65216 | 9.88572 | 11185 ft | 299 kts | 208° |
| 2026-04-30 06:30 | 45.63379 | 9.87206 | 10812 ft | 291 kts | 208° |
| 2026-04-30 06:30 | 45.61608 | 9.85890 | 10432 ft | 284 kts | 208° |
| 2026-04-30 06:30 | 45.59884 | 9.84612 | 10072 ft | 280 kts | 208° |
| 2026-04-30 06:31 | 45.58168 | 9.83341 | 9694 ft | 279 kts | 208° |
| 2026-04-30 06:31 | 45.56453 | 9.82069 | 9319 ft | 278 kts | 208° |
| 2026-04-30 06:31 | 45.54737 | 9.80797 | 8955 ft | 278 kts | 208° |
| 2026-04-30 06:31 | 45.52960 | 9.79808 | 8560 ft | 277 kts | 188° |
| 2026-04-30 06:32 | 45.51056 | 9.79862 | 8179 ft | 274 kts | 170° |
| 2026-04-30 06:32 | 45.49177 | 9.80309 | 7800 ft | 273 kts | 168° |
| 2026-04-30 06:32 | 45.47317 | 9.80776 | 7438 ft | 272 kts | 168° |
| 2026-04-30 06:32 | 45.45480 | 9.81330 | 7048 ft | 270 kts | 158° |
| 2026-04-30 06:33 | 45.44022 | 9.82864 | 6674 ft | 261 kts | 121° |
| 2026-04-30 06:33 | 45.43464 | 9.85201 | 6471 ft | 247 kts | 92° |
| 2026-04-30 06:33 | 45.43663 | 9.87566 | 6290 ft | 236 kts | 70° |
| 2026-04-30 06:33 | 45.44457 | 9.89566 | 6129 ft | 228 kts | 48° |
| 2026-04-30 06:34 | 45.45607 | 9.91073 | 5960 ft | 227 kts | 40° |
| 2026-04-30 06:34 | 45.46820 | 9.92540 | 5781 ft | 228 kts | 40° |
| 2026-04-30 06:34 | 45.48027 | 9.94017 | 5601 ft | 228 kts | 41° |
| 2026-04-30 06:34 | 45.49228 | 9.95502 | 5427 ft | 228 kts | 39° |
| 2026-04-30 06:35 | 45.50606 | 9.96636 | 5256 ft | 229 kts | 20° |
| 2026-04-30 06:35 | 45.52097 | 9.97263 | 5086 ft | 222 kts | 15° |
| 2026-04-30 06:35 | 45.53582 | 9.97806 | 4922 ft | 214 kts | 15° |
| 2026-04-30 06:35 | 45.55003 | 9.98324 | 4768 ft | 209 kts | 16° |
| 2026-04-30 06:36 | 45.56382 | 9.98836 | 4635 ft | 199 kts | 17° |
| 2026-04-30 06:36 | 45.57676 | 9.99322 | 4557 ft | 189 kts | 17° |
| 2026-04-30 06:36 | 45.58933 | 9.99804 | 4403 ft | 187 kts | 17° |
| 2026-04-30 06:36 | 45.60218 | 9.99937 | 4226 ft | 189 kts | 348° |
| 2026-04-30 06:37 | 45.61299 | 9.98896 | 4071 ft | 192 kts | 308° |
| 2026-04-30 06:37 | 45.61867 | 9.97184 | 3972 ft | 193 kts | 290° |
| 2026-04-30 06:37 | 45.62238 | 9.95391 | 3935 ft | 179 kts | 287° |
| 2026-04-30 06:37 | 45.62540 | 9.93732 | 3758 ft | 172 kts | 286° |
| 2026-04-30 06:38 | 45.62838 | 9.92070 | 3561 ft | 172 kts | 286° |
| 2026-04-30 06:38 | 45.63134 | 9.90429 | 3316 ft | 168 kts | 286° |
| 2026-04-30 06:38 | 45.63421 | 9.88865 | 3074 ft | 158 kts | 285° |
| 2026-04-30 06:38 | 45.63690 | 9.87403 | 2848 ft | 149 kts | 285° |
| 2026-04-30 06:39 | 45.63953 | 9.85987 | 2665 ft | 148 kts | 285° |
| 2026-04-30 06:39 | 45.64217 | 9.84567 | 2486 ft | 148 kts | 283° |
| 2026-04-30 06:39 | 45.64480 | 9.83154 | 2303 ft | 146 kts | 282° |
| 2026-04-30 06:39 | 45.64736 | 9.81766 | 2114 ft | 144 kts | 282° |
| 2026-04-30 06:40 | 45.64991 | 9.80370 | 1915 ft | 143 kts | 287° |
| 2026-04-30 06:40 | 45.65241 | 9.79015 | 1728 ft | 142 kts | 288° |
| 2026-04-30 06:40 | 45.65496 | 9.77646 | 1534 ft | 141 kts | 283° |
| 2026-04-30 06:40 | 45.65743 | 9.76305 | 1340 ft | 140 kts | 287° |
| 2026-04-30 06:41 | 45.65997 | 9.74941 | 1153 ft | 140 kts | 284° |
| 2026-04-30 06:41 | 45.66248 | 9.73599 | 970 ft | 139 kts | 284° |
| 2026-04-30 06:41 | 45.66491 | 9.72266 | 781 ft | 137 kts | 284° |
| 2026-04-30 06:41 | 45.66717 | 9.71048 | 785 ft | 103 kts | 285° |
| 2026-04-30 06:42 | 45.66834 | 9.70418 | 789 ft | 35 kts | 285° |
| 2026-04-30 06:42 | 45.66882 | 9.70155 | 789 ft | 18 kts | 285° |
| 2026-04-30 06:42 | 45.66886 | 9.70014 | 789 ft | 13 kts | 250° |
| 2026-04-30 06:42 | 45.66857 | 9.69920 | 788 ft | 10 kts | 240° |
| 2026-04-30 06:43 | 45.66836 | 9.69877 | 788 ft | 5 kts | 234° |
| 2026-04-30 06:43 | 45.66806 | 9.69846 | 787 ft | 6 kts | 198° |
| 2026-04-30 06:43 | 45.66758 | 9.69828 | 787 ft | 7 kts | 194° |
| 2026-04-30 06:43 | 45.66703 | 9.69807 | 786 ft | 5 kts | 195° |
| 2026-04-30 06:44 | 45.66694 | 9.69804 | 786 ft | 0 kts | 195° |